Time;durP1;ratioP1;P1;durP2;ratioP2;P2;SDS_P1;SDS_P2;PMS_P1;PMS_P2;Temp;Humidity;BMP_temperature;BMP_pressure;BME280_temperature;BME280_humidity;BME280_pressure;Samples;Min_cycle;Max_cycle;Signal;HPM_P1;HPM_P2
2022/10/20 00:00:42;;;;;;;7.73;3.67;;;6.20;90.20;;;;;;5036322;28;20207;-86
2022/10/20 00:03:07;;;;;;;5.67;3.30;;;6.30;90.20;;;;;;5018593;28;20188;-87
2022/10/20 00:05:33;;;;;;;3.87;3.30;;;6.20;90.10;;;;;;5018766;28;20187;-87
2022/10/20 00:07:58;;;;;;;4.17;3.47;;;6.20;90.20;;;;;;5018906;28;20215;-87
2022/10/20 00:10:24;;;;;;;4.20;3.20;;;6.10;90.10;;;;;;5018821;28;20215;-86
2022/10/20 00:12:49;;;;;;;5.53;3.10;;;6.10;90.20;;;;;;5036282;28;20200;-87
2022/10/20 00:15:15;;;;;;;3.97;3.43;;;6.10;90.30;;;;;;5036784;28;20737;-87
2022/10/20 00:17:43;;;;;;;6.03;4.53;;;6.10;90.40;;;;;;5018503;28;20183;-87
2022/10/20 00:20:09;;;;;;;3.77;3.30;;;6.10;90.50;;;;;;5036681;28;20176;-87
2022/10/20 00:22:35;;;;;;;6.70;3.40;;;6.20;90.50;;;;;;5018799;28;20200;-87
2022/10/20 00:25:00;;;;;;;5.60;3.30;;;6.10;90.50;;;;;;5020159;28;20204;-88
2022/10/20 00:27:26;;;;;;;3.80;3.40;;;6.10;90.60;;;;;;5019659;28;20181;-87
2022/10/20 00:29:51;;;;;;;3.53;2.70;;;6.10;90.60;;;;;;5019048;28;20184;-88
2022/10/20 00:32:17;;;;;;;9.70;3.00;;;6.10;90.60;;;;;;5037168;28;20736;-87
2022/10/20 00:34:42;;;;;;;3.73;3.00;;;6.10;90.60;;;;;;5039629;28;20288;-87
2022/10/20 00:37:08;;;;;;;6.53;2.83;;;6.00;90.60;;;;;;5020593;28;20179;-87
2022/10/20 00:39:33;;;;;;;5.27;3.40;;;6.00;90.60;;;;;;5020339;28;20202;-87
2022/10/20 00:42:02;;;;;;;6.30;3.20;;;6.00;90.60;;;;;;5037387;28;20686;-87
2022/10/20 00:44:45;;;;;;;3.80;3.10;;;5.90;90.70;;;;;;5019049;28;20184;-86
2022/10/20 00:47:15;;;;;;;4.73;3.73;;;5.90;90.70;;;;;;5018276;28;20210;-87
2022/10/20 00:49:41;;;;;;;3.53;3.23;;;5.90;90.80;;;;;;5017978;28;20177;-87
2022/10/20 00:52:08;;;;;;;4.03;3.30;;;5.90;90.80;;;;;;5017722;28;20274;-86
2022/10/20 00:54:33;;;;;;;5.00;3.10;;;5.90;90.90;;;;;;5035791;28;20282;-87
2022/10/20 00:56:59;;;;;;;5.17;3.00;;;5.80;90.90;;;;;;5016939;28;20265;-87
2022/10/20 00:59:30;;;;;;;5.20;3.20;;;5.80;91.00;;;;;;5017797;28;20203;-87
2022/10/20 01:01:58;;;;;;;3.70;3.40;;;5.80;91.00;;;;;;5035060;28;20251;-87
2022/10/20 01:04:26;;;;;;;3.17;2.90;;;5.80;91.10;;;;;;5034886;28;20179;-87
2022/10/20 01:06:52;;;;;;;3.30;3.00;;;5.80;91.10;;;;;;5017118;28;20187;-87
2022/10/20 01:09:18;;;;;;;4.93;3.23;;;5.80;91.20;;;;;;5034739;28;20191;-86
2022/10/20 01:12:08;;;;;;;3.17;2.97;;;5.80;91.20;;;;;;5034681;28;20200;-87
2022/10/20 01:14:46;;;;;;;9.77;3.07;;;5.80;91.20;;;;;;5034939;28;20222;-87
2022/10/20 01:17:22;;;;;;;4.27;3.37;;;5.80;91.30;;;;;;5016888;28;20533;-87
2022/10/20 01:20:03;;;;;;;3.67;3.30;;;5.90;91.30;;;;;;5017269;28;20179;-86
2022/10/20 01:22:34;;;;;;;4.73;3.20;;;5.90;91.30;;;;;;5017545;28;20242;-86
2022/10/20 01:25:12;;;;;;;3.63;3.10;;;5.90;91.30;;;;;;5016732;28;20180;-86
2022/10/20 01:27:41;;;;;;;4.67;2.83;;;5.90;91.30;;;;;;5016942;28;20659;-87
2022/10/20 01:30:21;;;;;;;3.87;3.30;;;5.90;91.20;;;;;;5034632;28;20176;-87
2022/10/20 01:33:17;;;;;;;3.37;3.03;;;5.90;91.20;;;;;;5016624;28;20571;-87
2022/10/20 01:35:53;;;;;;;3.53;3.23;;;5.90;91.20;;;;;;5016681;28;20704;-86
2022/10/20 01:38:43;;;;;;;4.33;3.37;;;5.90;91.10;;;;;;5016602;28;20179;-86
2022/10/20 01:41:34;;;;;;;9.13;3.63;;;5.90;91.10;;;;;;5016457;28;20203;-86
2022/10/20 01:44:03;;;;;;;3.70;3.23;;;6.00;91.10;;;;;;5017301;28;20180;-86
2022/10/20 01:46:30;;;;;;;6.90;3.30;;;6.00;91.00;;;;;;5016442;28;20212;-86
2022/10/20 01:48:59;;;;;;;7.37;3.37;;;5.90;91.00;;;;;;5016408;28;20191;-86
2022/10/20 01:51:24;;;;;;;3.53;3.23;;;5.90;91.00;;;;;;5016188;28;20254;-86
2022/10/20 01:53:50;;;;;;;4.90;3.27;;;5.90;90.80;;;;;;5016457;28;20564;-86
2022/10/20 01:56:25;;;;;;;5.97;3.50;;;5.90;90.90;;;;;;5016380;28;20179;-86
2022/10/20 01:59:18;;;;;;;4.67;3.63;;;5.80;90.80;;;;;;5016273;28;20225;-86
2022/10/20 02:01:49;;;;;;;6.93;3.20;;;5.80;90.80;;;;;;5015876;28;20254;-86
2022/10/20 02:04:23;;;;;;;6.50;3.60;;;5.70;90.80;;;;;;5016148;28;20546;-86
2022/10/20 02:07:09;;;;;;;3.53;3.30;;;5.70;90.90;;;;;;5033821;28;20200;-86
2022/10/20 02:09:47;;;;;;;3.80;3.40;;;5.70;90.90;;;;;;5033708;28;20178;-87
2022/10/20 02:12:20;;;;;;;3.90;3.37;;;5.60;90.90;;;;;;5033631;28;20223;-87
2022/10/20 02:14:46;;;;;;;9.03;3.37;;;5.60;91.00;;;;;;5033520;28;20279;-86
2022/10/20 02:17:15;;;;;;;4.07;3.20;;;5.60;91.00;;;;;;5015836;28;20630;-86
2022/10/20 02:19:43;;;;;;;7.43;3.60;;;5.60;91.00;;;;;;5033522;28;20176;-86
2022/10/20 02:22:12;;;;;;;3.80;3.50;;;5.50;91.10;;;;;;5015773;28;20748;-87
2022/10/20 02:24:39;;;;;;;4.97;3.50;;;5.50;91.10;;;;;;5015753;28;20187;-87
2022/10/20 02:27:13;;;;;;;4.13;3.73;;;5.50;91.20;;;;;;5033402;28;20548;-86
2022/10/20 02:29:45;;;;;;;5.87;3.37;;;5.40;91.20;;;;;;5015737;28;20261;-86
2022/10/20 02:32:11;;;;;;;4.43;3.30;;;5.40;91.30;;;;;;5015773;28;20686;-86
2022/10/20 02:34:37;;;;;;;4.90;3.30;;;5.40;91.30;;;;;;5015532;28;20211;-86
2022/10/20 02:37:03;;;;;;;3.60;3.20;;;5.40;91.40;;;;;;5015661;28;20230;-86
2022/10/20 02:39:28;;;;;;;6.53;3.47;;;5.30;91.40;;;;;;5033250;28;20179;-87
2022/10/20 02:41:54;;;;;;;9.37;3.60;;;5.30;91.40;;;;;;5015567;28;20204;-86
2022/10/20 02:44:19;;;;;;;3.93;3.50;;;5.30;91.40;;;;;;5015642;28;20187;-87
2022/10/20 02:46:45;;;;;;;7.30;3.00;;;5.30;91.40;;;;;;5015564;28;20189;-86
2022/10/20 02:49:10;;;;;;;5.77;3.40;;;5.30;91.40;;;;;;5033530;28;20184;-86
2022/10/20 02:51:36;;;;;;;4.73;3.50;;;5.30;91.50;;;;;;5015876;28;20204;-86
2022/10/20 02:54:01;;;;;;;4.70;3.77;;;5.30;91.50;;;;;;5015365;28;20245;-87
2022/10/20 02:56:27;;;;;;;5.57;3.53;;;5.30;91.50;;;;;;5033141;28;20638;-87
2022/10/20 02:58:53;;;;;;;5.53;3.53;;;5.20;91.50;;;;;;5033348;28;20178;-86
2022/10/20 03:01:18;;;;;;;12.60;4.50;;;5.20;91.50;;;;;;5015301;28;20215;-87
2022/10/20 03:03:44;;;;;;;5.50;3.80;;;5.20;91.50;;;;;;5015794;28;20184;-86
2022/10/20 03:06:12;;;;;;;7.77;3.70;;;5.20;91.50;;;;;;5033000;28;20645;-86
2022/10/20 03:08:37;;;;;;;5.93;3.63;;;5.10;91.60;;;;;;5015369;28;20187;-87
2022/10/20 03:11:03;;;;;;;5.50;3.70;;;5.20;91.70;;;;;;5033148;28;20196;-86
2022/10/20 03:13:29;;;;;;;5.97;3.47;;;5.20;91.70;;;;;;5032926;28;20604;-86
2022/10/20 03:15:54;;;;;;;6.87;4.10;;;5.20;91.80;;;;;;5015295;28;20242;-86
2022/10/20 03:18:20;;;;;;;5.37;3.53;;;5.20;91.80;;;;;;5032933;28;20244;-87
2022/10/20 03:20:45;;;;;;;8.93;4.20;;;5.10;91.70;;;;;;5017109;28;20700;-86
2022/10/20 03:23:11;;;;;;;4.03;3.63;;;5.10;91.80;;;;;;5036749;28;20175;-87
2022/10/20 03:25:36;;;;;;;6.20;4.00;;;5.10;91.80;;;;;;5019278;28;20642;-87
2022/10/20 03:28:02;;;;;;;6.37;4.07;;;5.00;91.90;;;;;;5037117;28;20188;-86
2022/10/20 03:30:28;;;;;;;9.17;3.70;;;5.00;91.90;;;;;;5019362;28;20210;-87
2022/10/20 03:32:55;;;;;;;5.10;3.83;;;5.10;91.90;;;;;;5036572;28;20199;-87
2022/10/20 03:35:21;;;;;;;7.90;4.13;;;5.10;92.00;;;;;;5018840;28;20720;-87
2022/10/20 03:37:46;;;;;;;7.37;3.83;;;5.10;92.10;;;;;;5018802;28;20281;-87
2022/10/20 03:40:12;;;;;;;5.07;4.17;;;5.20;92.10;;;;;;5036592;28;20209;-87
2022/10/20 03:42:37;;;;;;;6.97;4.20;;;5.20;92.20;;;;;;5018913;28;20293;-87
2022/10/20 03:45:03;;;;;;;11.50;4.17;;;5.20;92.20;;;;;;5018769;28;20179;-87
2022/10/20 03:47:29;;;;;;;5.10;3.53;;;5.20;92.10;;;;;;5018524;28;20547;-87
2022/10/20 03:49:54;;;;;;;4.40;4.00;;;5.20;92.10;;;;;;5018551;28;20175;-87
2022/10/20 03:52:20;;;;;;;5.90;4.20;;;5.20;92.20;;;;;;5018559;28;20198;-87
2022/10/20 03:54:45;;;;;;;4.17;3.80;;;5.10;92.20;;;;;;5018465;28;20234;-87
2022/10/20 03:57:11;;;;;;;4.87;4.13;;;5.10;92.20;;;;;;5018606;28;20220;-87
2022/10/20 03:59:36;;;;;;;5.43;4.40;;;5.10;92.20;;;;;;5036094;28;20611;-87
2022/10/20 04:02:02;;;;;;;6.47;3.87;;;5.20;92.30;;;;;;5036269;28;20219;-86
2022/10/20 04:04:27;;;;;;;5.47;3.90;;;5.20;92.30;;;;;;5018345;28;20180;-87
2022/10/20 04:06:53;;;;;;;5.73;4.00;;;5.10;92.20;;;;;;5018266;28;20180;-87
2022/10/20 04:09:18;;;;;;;4.10;3.53;;;5.10;92.20;;;;;;5018294;28;20275;-87
2022/10/20 04:11:44;;;;;;;6.53;4.20;;;5.10;92.20;;;;;;5018041;28;20210;-87
2022/10/20 04:14:10;;;;;;;3.70;3.30;;;5.00;92.20;;;;;;5018117;28;20587;-87
2022/10/20 04:16:35;;;;;;;8.20;3.57;;;5.10;92.20;;;;;;5018390;28;20179;-87
2022/10/20 04:19:01;;;;;;;4.17;3.40;;;5.00;92.20;;;;;;5018288;28;20176;-87
2022/10/20 04:21:26;;;;;;;5.80;3.70;;;5.00;92.20;;;;;;5018059;28;20203;-87
2022/10/20 04:23:52;;;;;;;4.63;3.30;;;5.00;92.30;;;;;;5018118;28;20220;-88
2022/10/20 04:26:18;;;;;;;6.60;3.57;;;5.00;92.30;;;;;;5018142;28;20186;-87
2022/10/20 04:28:43;;;;;;;5.93;3.40;;;5.00;92.40;;;;;;5018099;28;20669;-86
2022/10/20 04:31:09;;;;;;;11.17;4.10;;;4.90;92.30;;;;;;5035342;28;20194;-86
2022/10/20 04:33:34;;;;;;;5.97;3.50;;;4.90;92.40;;;;;;5017433;28;20206;-87
2022/10/20 04:36:02;;;;;;;5.73;4.03;;;4.90;92.40;;;;;;5017901;28;20173;-87
2022/10/20 04:38:31;;;;;;;5.33;3.23;;;4.90;92.40;;;;;;5035801;28;20183;-87
2022/10/20 04:40:59;;;;;;;5.63;3.90;;;4.90;92.50;;;;;;5035413;28;20685;-87
2022/10/20 04:43:25;;;;;;;7.97;4.43;;;4.90;92.50;;;;;;5017800;28;20188;-88
2022/10/20 04:45:57;;;;;;;6.73;3.53;;;4.90;92.50;;;;;;5017687;28;20667;-88
2022/10/20 04:48:23;;;;;;;15.03;3.70;;;4.90;92.50;;;;;;5017683;28;20182;-88
2022/10/20 04:50:59;;;;;;;6.97;4.80;;;4.90;92.50;;;;;;5017590;28;20207;-87
2022/10/20 04:53:24;;;;;;;4.03;3.60;;;4.90;92.50;;;;;;5017635;28;20645;-87
2022/10/20 04:55:54;;;;;;;6.60;4.53;;;4.90;92.50;;;;;;5017568;28;20270;-87
2022/10/20 04:58:20;;;;;;;9.47;4.37;;;4.90;92.60;;;;;;5017615;28;20182;-88
2022/10/20 05:00:45;;;;;;;8.27;4.20;;;4.90;92.60;;;;;;5017248;28;20297;-87
2022/10/20 05:03:11;;;;;;;10.07;3.90;;;4.90;92.60;;;;;;5017590;28;20163;-87
2022/10/20 05:05:36;;;;;;;5.70;3.83;;;4.90;92.60;;;;;;5017312;28;20686;-87
2022/10/20 05:08:02;;;;;;;5.03;4.10;;;4.90;92.60;;;;;;5018174;28;20172;-87
2022/10/20 05:10:27;;;;;;;5.90;3.90;;;4.90;92.60;;;;;;5017530;28;20180;-87
2022/10/20 05:12:53;;;;;;;4.90;4.20;;;4.90;92.60;;;;;;5017073;28;20214;-87
2022/10/20 05:15:18;;;;;;;6.13;4.13;;;4.90;92.60;;;;;;5017228;28;20179;-87
2022/10/20 05:17:44;;;;;;;9.40;4.77;;;4.90;92.60;;;;;;5017041;28;20668;-88
2022/10/20 05:20:09;;;;;;;6.17;4.60;;;4.80;92.60;;;;;;5017138;28;20174;-87
2022/10/20 05:22:35;;;;;;;6.97;4.40;;;4.90;92.70;;;;;;5016942;28;20192;-87
2022/10/20 05:25:00;;;;;;;6.27;4.20;;;4.90;92.70;;;;;;5016942;28;20233;-87
2022/10/20 05:27:27;;;;;;;6.40;4.57;;;4.90;92.70;;;;;;5016886;28;20189;-87
2022/10/20 05:29:53;;;;;;;7.33;4.53;;;4.80;92.60;;;;;;5034796;28;20228;-87
2022/10/20 05:32:18;;;;;;;6.90;4.67;;;4.80;92.70;;;;;;5016815;28;20200;-87
2022/10/20 05:34:44;;;;;;;6.77;5.00;;;4.80;92.70;;;;;;5016602;28;20252;-88
2022/10/20 05:37:09;;;;;;;8.67;5.03;;;4.80;92.70;;;;;;5034476;28;20259;-87
2022/10/20 05:39:35;;;;;;;8.13;4.93;;;4.80;92.70;;;;;;5016820;28;20269;-88
2022/10/20 05:42:00;;;;;;;8.43;4.90;;;4.80;92.70;;;;;;5017110;28;20194;-86
2022/10/20 05:44:26;;;;;;;5.97;4.80;;;4.80;92.80;;;;;;5016563;28;20189;-87
2022/10/20 05:46:52;;;;;;;10.33;4.90;;;4.80;92.80;;;;;;5034238;28;20542;-87
2022/10/20 05:49:18;;;;;;;11.37;5.10;;;4.80;92.80;;;;;;5016526;28;20241;-87
2022/10/20 05:51:45;;;;;;;8.87;5.43;;;4.80;92.80;;;;;;5034263;28;20268;-87
2022/10/20 05:54:12;;;;;;;10.77;5.57;;;4.80;92.80;;;;;;5016527;28;20340;-87
2022/10/20 05:56:38;;;;;;;7.17;4.77;;;4.80;92.80;;;;;;5016496;28;20575;-87
2022/10/20 05:59:04;;;;;;;18.57;5.67;;;4.80;92.90;;;;;;5033880;28;20167;-86
2022/10/20 06:01:39;;;;;;;7.10;5.60;;;4.90;92.90;;;;;;5016277;28;20215;-87
2022/10/20 06:04:07;;;;;;;10.43;5.53;;;4.90;92.90;;;;;;5017315;28;20193;-87
2022/10/20 06:06:33;;;;;;;6.40;5.13;;;4.90;92.90;;;;;;5016412;28;20185;-87
2022/10/20 06:09:00;;;;;;;8.00;5.13;;;5.00;92.90;;;;;;5034173;28;20253;-87
2022/10/20 06:11:26;;;;;;;15.40;5.40;;;5.00;92.90;;;;;;5016483;28;20614;-86
2022/10/20 06:13:51;;;;;;;8.33;5.63;;;5.00;92.90;;;;;;5033907;28;20194;-87
2022/10/20 06:16:20;;;;;;;8.20;5.53;;;5.00;92.90;;;;;;5015904;28;20189;-87
2022/10/20 06:18:46;;;;;;;12.80;5.97;;;5.00;92.90;;;;;;5016038;28;20169;-87
2022/10/20 06:21:18;;;;;;;10.63;6.50;;;5.10;92.90;;;;;;5033892;28;20190;-87
2022/10/20 06:23:44;;;;;;;13.90;5.93;;;5.10;92.90;;;;;;5015968;28;20261;-87
2022/10/20 06:26:12;;;;;;;13.43;6.10;;;5.10;92.90;;;;;;5015938;28;20213;-88
2022/10/20 06:28:39;;;;;;;9.07;5.63;;;5.20;92.90;;;;;;5016295;28;20202;-87
2022/10/20 06:31:14;;;;;;;12.30;6.33;;;5.20;92.90;;;;;;5015837;28;20551;-87
2022/10/20 06:33:40;;;;;;;9.00;5.83;;;5.20;92.90;;;;;;5033274;28;20194;-87
2022/10/20 06:36:06;;;;;;;14.30;6.70;;;5.20;92.90;;;;;;5016033;28;20543;-87
2022/10/20 06:38:31;;;;;;;11.57;6.77;;;5.30;92.90;;;;;;5033334;28;20714;-87
2022/10/20 06:41:01;;;;;;;7.73;5.20;;;5.30;92.90;;;;;;5015525;28;20203;-87
2022/10/20 06:43:26;;;;;;;8.03;5.33;;;5.30;92.90;;;;;;5015726;28;20183;-87
2022/10/20 06:45:56;;;;;;;7.43;5.60;;;5.40;92.90;;;;;;5033582;28;20540;-87
2022/10/20 06:48:22;;;;;;;7.27;5.83;;;5.40;92.90;;;;;;5015811;28;20233;-87
2022/10/20 06:50:48;;;;;;;13.17;5.77;;;5.50;92.90;;;;;;5016695;28;20280;-87
2022/10/20 06:53:14;;;;;;;8.73;5.73;;;5.50;92.90;;;;;;5033410;28;20645;-87
2022/10/20 06:55:39;;;;;;;6.77;5.50;;;5.60;92.90;;;;;;5017978;28;20181;-87
2022/10/20 06:58:05;;;;;;;9.43;4.97;;;5.70;92.90;;;;;;5037369;28;20586;-87
2022/10/20 07:00:30;;;;;;;14.97;6.10;;;5.70;92.90;;;;;;5020041;28;20172;-88
2022/10/20 07:02:56;;;;;;;9.43;5.73;;;5.80;92.90;;;;;;5022772;28;20169;-88
2022/10/20 07:05:21;;;;;;;9.43;5.77;;;5.90;92.90;;;;;;5022474;28;20168;-88
2022/10/20 07:07:47;;;;;;;6.93;5.47;;;6.00;92.90;;;;;;5022196;28;20233;-87
2022/10/20 07:10:12;;;;;;;8.57;5.90;;;6.00;92.80;;;;;;5023697;28;20177;-88
2022/10/20 07:12:38;;;;;;;9.93;6.07;;;6.10;92.80;;;;;;5025314;28;20196;-88
2022/10/20 07:15:05;;;;;;;8.83;5.80;;;6.20;92.80;;;;;;5024045;28;20215;-88
2022/10/20 07:17:30;;;;;;;9.97;5.97;;;6.30;92.80;;;;;;5022586;28;20242;-88
2022/10/20 07:19:56;;;;;;;12.53;6.17;;;6.40;92.80;;;;;;5023081;28;20180;-88
2022/10/20 07:22:21;;;;;;;12.30;5.47;;;6.60;92.90;;;;;;5039936;28;20542;-88
2022/10/20 07:24:47;;;;;;;10.00;5.57;;;6.70;92.80;;;;;;5040795;28;20184;-88
2022/10/20 07:27:12;;;;;;;9.07;5.50;;;6.70;92.70;;;;;;5023363;28;20181;-88
2022/10/20 07:29:38;;;;;;;10.10;5.83;;;6.80;92.70;;;;;;5026641;28;20580;-88
2022/10/20 07:32:03;;;;;;;6.63;5.33;;;6.90;92.60;;;;;;5021449;28;20207;-88
2022/10/20 07:34:29;;;;;;;15.73;6.07;;;7.00;92.60;;;;;;5022934;28;20204;-88
2022/10/20 07:36:55;;;;;;;16.07;5.87;;;7.10;92.50;;;;;;5040372;28;20180;-88
2022/10/20 07:39:21;;;;;;;8.53;5.77;;;7.20;92.50;;;;;;5022255;28;20176;-88
2022/10/20 07:41:47;;;;;;;6.67;5.97;;;7.30;92.40;;;;;;5021402;28;20200;-88
2022/10/20 07:44:13;;;;;;;9.10;5.90;;;7.40;92.30;;;;;;5022596;28;20183;-87
2022/10/20 07:46:38;;;;;;;12.43;6.40;;;7.50;92.20;;;;;;5040328;28;20177;-87
2022/10/20 07:49:04;;;;;;;10.97;6.67;;;7.70;92.10;;;;;;5022927;28;20177;-87
2022/10/20 07:51:31;;;;;;;7.00;5.93;;;7.80;91.90;;;;;;5039121;28;20192;-87
2022/10/20 07:53:58;;;;;;;10.70;6.33;;;7.90;91.50;;;;;;5038966;28;20202;-88
2022/10/20 07:56:30;;;;;;;9.73;5.50;;;8.00;91.20;;;;;;5022652;28;20177;-87
2022/10/20 07:58:56;;;;;;;12.57;6.93;;;8.10;90.80;;;;;;5023967;28;20537;-87
2022/10/20 08:01:22;;;;;;;10.90;5.50;;;8.20;90.50;;;;;;5019929;28;20219;-87
2022/10/20 08:03:48;;;;;;;12.33;5.60;;;8.30;90.40;;;;;;5037851;28;20176;-87
2022/10/20 08:06:13;;;;;;;7.47;5.73;;;8.30;90.10;;;;;;5020301;28;20266;-88
2022/10/20 08:08:39;;;;;;;8.63;5.67;;;8.40;89.80;;;;;;5020439;28;20271;-87
2022/10/20 08:11:04;;;;;;;11.73;5.13;;;8.40;89.30;;;;;;5019984;28;20197;-88
2022/10/20 08:13:30;;;;;;;9.53;4.73;;;8.50;89.00;;;;;;5020877;28;20212;-88
2022/10/20 08:15:56;;;;;;;9.70;4.43;;;8.60;88.40;;;;;;5020966;28;20188;-87
2022/10/20 08:18:22;;;;;;;6.73;5.00;;;8.70;87.90;;;;;;5020876;28;20173;-88
2022/10/20 08:20:48;;;;;;;9.70;4.47;;;8.70;87.50;;;;;;5020622;28;20198;-87
2022/10/20 08:23:14;;;;;;;6.40;4.60;;;8.80;87.50;;;;;;5020604;28;20544;-87
2022/10/20 08:25:40;;;;;;;5.33;4.00;;;8.90;87.10;;;;;;5020429;28;20173;-87
2022/10/20 08:28:06;;;;;;;15.93;4.70;;;8.90;86.80;;;;;;5020330;28;20181;-88
2022/10/20 08:30:31;;;;;;;16.60;4.80;;;8.90;86.40;;;;;;5037802;28;20196;-87
2022/10/20 08:32:57;;;;;;;6.37;4.03;;;9.00;86.20;;;;;;5038321;28;20180;-88
2022/10/20 08:35:23;;;;;;;14.07;4.50;;;9.00;86.20;;;;;;5023887;28;20180;-87
2022/10/20 08:37:49;;;;;;;7.00;4.50;;;9.10;85.90;;;;;;5021735;28;20729;-87
2022/10/20 08:40:26;;;;;;;6.37;4.00;;;9.10;85.80;;;;;;5020663;28;20256;-87
2022/10/20 08:42:53;;;;;;;9.77;4.50;;;9.20;85.50;;;;;;5038239;28;20170;-87
2022/10/20 08:45:25;;;;;;;9.03;4.47;;;9.20;85.50;;;;;;5037552;28;20211;-87
2022/10/20 08:47:56;;;;;;;5.77;4.30;;;9.20;85.60;;;;;;5020520;28;20599;-88
2022/10/20 08:50:26;;;;;;;6.80;4.10;;;9.30;85.50;;;;;;5020506;28;20204;-87
2022/10/20 08:52:56;;;;;;;6.33;3.93;;;9.30;85.20;;;;;;5038447;28;20256;-87
2022/10/20 08:55:30;;;;;;;6.80;4.13;;;9.30;85.10;;;;;;5020364;28;20537;-88
2022/10/20 08:58:19;;;;;;;7.47;4.00;;;9.40;85.30;;;;;;5020032;28;20535;-88
2022/10/20 09:00:46;;;;;;;9.30;3.50;;;9.50;85.20;;;;;;5019311;28;20713;-87
2022/10/20 09:03:17;;;;;;;10.63;3.60;;;9.50;84.80;;;;;;5020807;28;20287;-88
2022/10/20 09:05:47;;;;;;;5.47;3.50;;;9.60;84.60;;;;;;5038604;28;20172;-89
2022/10/20 09:08:13;;;;;;;8.83;3.33;;;9.60;84.40;;;;;;5024389;28;20173;-87
2022/10/20 09:10:50;;;;;;;6.83;3.20;;;9.60;83.70;;;;;;5028465;28;20295;-87
2022/10/20 09:13:22;;;;;;;7.87;3.47;;;9.50;83.40;;;;;;5027515;28;20196;-87
2022/10/20 09:15:50;;;;;;;3.63;3.17;;;9.60;83.40;;;;;;5029136;28;20256;-87
2022/10/20 09:18:16;;;;;;;8.23;3.70;;;9.60;83.40;;;;;;5027453;28;20546;-88
2022/10/20 09:21:00;;;;;;;4.83;3.27;;;9.70;83.20;;;;;;5029331;28;20250;-87
2022/10/20 09:23:49;;;;;;;5.93;3.27;;;9.80;83.40;;;;;;5019894;28;20168;-86
2022/10/20 09:26:18;;;;;;;5.20;3.07;;;9.90;83.50;;;;;;5019483;28;20687;-87
2022/10/20 09:28:49;;;;;;;8.00;3.03;;;10.00;82.80;;;;;;5037765;28;20266;-86
2022/10/20 09:31:33;;;;;;;11.73;3.33;;;10.00;82.40;;;;;;5018644;28;20208;-86
2022/10/20 09:33:59;;;;;;;4.43;3.07;;;10.10;82.70;;;;;;5017522;28;20366;-88
2022/10/20 09:36:30;;;;;;;4.53;2.37;;;10.10;82.50;;;;;;5038780;28;20172;-87
2022/10/20 09:38:56;;;;;;;5.10;2.67;;;10.00;81.40;;;;;;5027925;28;20172;-87
2022/10/20 09:41:29;;;;;;;11.10;2.80;;;10.10;81.30;;;;;;5029603;28;20296;-88
2022/10/20 09:44:06;;;;;;;3.77;2.80;;;10.20;81.30;;;;;;5020049;28;20168;-87
2022/10/20 09:46:38;;;;;;;3.50;3.00;;;10.30;81.00;;;;;;5018999;28;20630;-88
2022/10/20 09:49:06;;;;;;;10.47;3.77;;;10.40;80.70;;;;;;5018938;28;20235;-87
2022/10/20 09:51:32;;;;;;;7.07;2.83;;;10.50;81.10;;;;;;5018677;28;20264;-87
2022/10/20 09:54:05;;;;;;;5.63;2.70;;;10.60;80.70;;;;;;5036303;28;20200;-87
2022/10/20 09:56:35;;;;;;;4.63;3.10;;;10.70;80.50;;;;;;5019332;28;20551;-87
2022/10/20 09:59:06;;;;;;;4.37;2.80;;;10.70;79.70;;;;;;5037528;28;20164;-88
2022/10/20 10:01:32;;;;;;;5.40;3.20;;;10.70;78.80;;;;;;5019449;28;20204;-88
2022/10/20 10:04:01;;;;;;;4.50;3.03;;;10.70;78.30;;;;;;5019795;28;20654;-88
2022/10/20 10:06:36;;;;;;;4.30;3.23;;;10.80;78.80;;;;;;5037235;28;20180;-87
2022/10/20 10:09:02;;;;;;;5.80;3.50;;;10.80;78.80;;;;;;5020012;28;20181;-87
2022/10/20 10:11:35;;;;;;;8.50;3.00;;;10.80;78.90;;;;;;5037654;28;20204;-87
2022/10/20 10:14:02;;;;;;;5.93;3.00;;;10.90;79.50;;;;;;5019997;28;20204;-88
2022/10/20 10:16:38;;;;;;;7.73;2.87;;;10.90;78.00;;;;;;5035874;28;20722;-88
2022/10/20 10:19:04;;;;;;;6.53;3.10;;;11.00;78.30;;;;;;5019592;28;20171;-87
2022/10/20 10:22:01;;;;;;;2.90;2.60;;;11.10;78.30;;;;;;5020779;28;20203;-87
2022/10/20 10:24:29;;;;;;;5.37;3.40;;;11.20;78.30;;;;;;5019083;28;20172;-88
2022/10/20 10:26:56;;;;;;;5.63;2.80;;;11.30;77.90;;;;;;5018287;28;20283;-87
2022/10/20 10:29:28;;;;;;;5.13;2.77;;;11.20;79.10;;;;;;5037665;28;20239;-88
2022/10/20 10:32:00;;;;;;;4.30;3.20;;;11.10;78.90;;;;;;5020377;28;20200;-87
2022/10/20 10:34:38;;;;;;;5.40;3.57;;;11.10;78.90;;;;;;5018992;28;20281;-87
2022/10/20 10:37:03;;;;;;;3.97;3.10;;;11.10;78.30;;;;;;5023050;28;20164;-87
2022/10/20 10:39:32;;;;;;;4.37;3.27;;;11.00;79.00;;;;;;5019722;28;20184;-87
2022/10/20 10:42:30;;;;;;;3.23;2.93;;;11.00;78.30;;;;;;5040742;28;20200;-87
2022/10/20 10:45:16;;;;;;;9.30;3.73;;;11.00;78.30;;;;;;5024048;28;20310;-88
2022/10/20 10:48:00;;;;;;;5.13;3.17;;;11.00;78.60;;;;;;5041330;28;20161;-88
2022/10/20 10:50:50;;;;;;;7.50;3.50;;;10.90;78.10;;;;;;5041181;28;20633;-87
2022/10/20 10:53:50;;;;;;;4.80;3.53;;;10.90;78.10;;;;;;5022736;28;20193;-88
2022/10/20 10:56:38;;;;;;;5.63;3.40;;;10.80;78.40;;;;;;5022557;28;20156;-88
2022/10/20 10:59:33;;;;;;;8.37;3.57;;;10.80;78.80;;;;;;5022482;28;20165;-87
2022/10/20 11:02:17;;;;;;;5.67;3.37;;;11.00;79.00;;;;;;5021243;28;20223;-87
2022/10/20 11:04:57;;;;;;;10.93;4.73;;;11.20;79.80;;;;;;5019689;28;20164;-88
2022/10/20 11:07:41;;;;;;;4.33;3.40;;;11.40;79.90;;;;;;5020065;28;20161;-87
2022/10/20 11:10:26;;;;;;;5.20;3.60;;;11.60;78.80;;;;;;5040169;28;20165;-87
2022/10/20 11:13:20;;;;;;;3.83;3.33;;;11.80;78.40;;;;;;5020264;28;20171;-87
2022/10/20 11:15:52;;;;;;;7.37;3.70;;;11.80;77.70;;;;;;5021157;28;20165;-87
2022/10/20 11:18:50;;;;;;;5.83;3.63;;;11.90;78.10;;;;;;5020418;28;20646;-87
2022/10/20 11:21:40;;;;;;;9.13;3.43;;;11.90;78.60;;;;;;5037668;28;20224;-85
2022/10/20 11:24:11;;;;;;;5.63;4.07;;;12.00;77.80;;;;;;5016116;28;20169;-87
2022/10/20 11:26:40;;;;;;;7.90;3.43;;;12.00;77.50;;;;;;5033953;28;20192;-87
2022/10/20 11:29:15;;;;;;;10.57;3.20;;;12.10;76.90;;;;;;5033720;28;20237;-86
2022/10/20 11:32:21;;;;;;;3.67;3.30;;;12.20;75.90;;;;;;5016207;28;20203;-87
2022/10/20 11:35:01;;;;;;;7.93;3.67;;;12.40;76.10;;;;;;5022900;28;20588;-87
2022/10/20 11:37:29;;;;;;;5.37;2.93;;;12.50;75.20;;;;;;5033600;28;20184;-87
2022/10/20 11:40:26;;;;;;;4.17;3.20;;;12.80;75.40;;;;;;5015820;28;20177;-86
2022/10/20 11:43:18;;;;;;;5.17;3.13;;;12.80;74.50;;;;;;5018944;28;20168;-86
2022/10/20 11:45:49;;;;;;;5.37;3.23;;;12.80;73.50;;;;;;5018934;28;20165;-86
2022/10/20 11:48:33;;;;;;;7.10;3.27;;;12.80;73.70;;;;;;5037000;28;20175;-87
2022/10/20 11:51:17;;;;;;;4.80;3.67;;;12.80;73.60;;;;;;5036736;28;20212;-86
2022/10/20 11:54:16;;;;;;;6.63;3.50;;;12.90;73.10;;;;;;5020147;28;20196;-87
2022/10/20 11:56:59;;;;;;;6.30;2.97;;;13.00;73.40;;;;;;5019716;28;20208;-87
2022/10/20 11:59:27;;;;;;;4.63;3.50;;;13.00;72.70;;;;;;5019694;28;20164;-86
2022/10/20 12:02:31;;;;;;;5.27;3.43;;;13.10;72.40;;;;;;5018935;28;20236;-86
2022/10/20 12:05:15;;;;;;;5.40;3.70;;;13.20;73.10;;;;;;5018911;28;20271;-87
2022/10/20 12:08:07;;;;;;;6.13;3.70;;;13.20;71.60;;;;;;5018915;28;20184;-87
2022/10/20 12:10:50;;;;;;;7.23;3.47;;;13.30;73.30;;;;;;5019908;28;20252;-87
2022/10/20 12:13:47;;;;;;;9.93;3.90;;;13.20;72.50;;;;;;5019241;28;20192;-87
2022/10/20 12:16:50;;;;;;;3.87;3.47;;;13.00;72.30;;;;;;5018899;28;20161;-86
2022/10/20 12:19:19;;;;;;;5.07;3.47;;;13.00;72.50;;;;;;5018208;28;20262;-86
2022/10/20 12:22:03;;;;;;;7.20;3.80;;;13.10;73.50;;;;;;5035983;28;20214;-86
2022/10/20 12:24:36;;;;;;;5.37;3.80;;;13.10;73.50;;;;;;5018743;28;20176;-86
2022/10/20 12:27:08;;;;;;;7.73;3.63;;;13.20;72.70;;;;;;5018224;28;20173;-87
2022/10/20 12:29:33;;;;;;;10.43;3.93;;;13.10;72.50;;;;;;5018840;28;20252;-87
2022/10/20 12:32:24;;;;;;;4.73;4.13;;;13.20;73.10;;;;;;5018666;28;20203;-86
2022/10/20 12:34:52;;;;;;;8.70;4.07;;;13.20;72.60;;;;;;5017806;28;20211;-86
2022/10/20 12:37:24;;;;;;;7.97;5.00;;;13.20;72.70;;;;;;5017944;28;20332;-86
2022/10/20 12:39:52;;;;;;;6.60;3.77;;;13.30;73.50;;;;;;5018248;28;20263;-87
2022/10/20 12:42:45;;;;;;;5.23;3.63;;;13.30;72.30;;;;;;5036103;28;20288;-87
2022/10/20 12:45:17;;;;;;;4.97;3.50;;;13.30;72.50;;;;;;5018004;28;20245;-87
2022/10/20 12:47:48;;;;;;;5.53;4.17;;;13.30;73.10;;;;;;5017606;28;20654;-86
2022/10/20 12:50:35;;;;;;;8.30;4.07;;;13.50;73.10;;;;;;5035680;28;20223;-86
2022/10/20 12:53:25;;;;;;;4.93;3.63;;;13.60;72.40;;;;;;5034077;28;20187;-86
2022/10/20 12:56:20;;;;;;;4.57;3.83;;;13.50;72.00;;;;;;5017557;28;20172;-86
2022/10/20 12:59:24;;;;;;;4.53;4.07;;;13.60;71.80;;;;;;5001091;28;20191;-86
2022/10/20 13:02:08;;;;;;;6.43;3.90;;;13.60;71.10;;;;;;5017400;28;20258;-86
2022/10/20 13:04:57;;;;;;;6.63;4.00;;;13.70;71.00;;;;;;5017373;28;20181;-86
2022/10/20 13:07:44;;;;;;;8.27;4.10;;;13.70;70.80;;;;;;5035321;28;20722;-86
2022/10/20 13:10:25;;;;;;;6.17;3.47;;;13.70;71.20;;;;;;5017173;28;20164;-85
2022/10/20 13:13:12;;;;;;;8.37;3.60;;;13.80;70.90;;;;;;5018883;28;20177;-87